Time;durP1;ratioP1;P1;durP2;ratioP2;P2;SDS_P1;SDS_P2;PMS_P1;PMS_P2;Temp;Humidity;BMP_temperature;BMP_pressure;BME280_temperature;BME280_humidity;BME280_pressure;Samples;Min_cycle;Max_cycle;Signal;HPM_P1;HPM_P2
2021/04/15 00:02:24;;;;;;;0.38;0.30;;;11.40;71.80;;;;;;5116953;28;20127;-35
2021/04/15 00:04:50;;;;;;;0.30;0.30;;;11.40;71.90;;;;;;5116868;28;20043;-36
2021/04/15 00:07:16;;;;;;;0.32;0.32;;;11.40;71.80;;;;;;5115877;28;20434;-36
2021/04/15 00:09:41;;;;;;;0.40;0.40;;;11.40;71.80;;;;;;5116660;28;20063;-38
2021/04/15 00:12:07;;;;;;;0.43;0.43;;;11.40;71.90;;;;;;5116751;28;20048;-36
2021/04/15 00:14:33;;;;;;;0.55;0.50;;;11.40;71.90;;;;;;5116143;28;20100;-35
2021/04/15 00:16:59;;;;;;;0.40;0.40;;;11.40;71.90;;;;;;5116682;28;20120;-34
2021/04/15 00:19:25;;;;;;;1.27;0.50;;;11.40;71.90;;;;;;5116347;28;20051;-36
2021/04/15 00:21:50;;;;;;;0.43;0.43;;;11.40;71.90;;;;;;5116458;28;20403;-36
2021/04/15 00:24:16;;;;;;;0.43;0.43;;;11.40;71.90;;;;;;5115929;28;20095;-35
2021/04/15 00:26:42;;;;;;;0.85;0.45;;;11.40;71.90;;;;;;5116273;27;20118;-37
2021/04/15 00:29:08;;;;;;;0.32;0.32;;;11.40;71.90;;;;;;5116463;28;20054;-33
2021/04/15 00:31:35;;;;;;;1.20;0.40;;;11.40;71.90;;;;;;5116360;28;20050;-36
2021/04/15 00:34:01;;;;;;;0.50;0.50;;;11.40;71.90;;;;;;5113314;28;20043;-40
2021/04/15 00:36:27;;;;;;;0.73;0.50;;;11.40;71.90;;;;;;5116062;28;20522;-36
2021/04/15 00:38:54;;;;;;;0.40;0.40;;;11.40;71.90;;;;;;5115999;28;20125;-36
2021/04/15 00:41:22;;;;;;;0.43;0.43;;;11.40;71.90;;;;;;5115909;28;20043;-36
2021/04/15 00:43:48;;;;;;;0.47;0.35;;;11.40;71.90;;;;;;5115889;28;20110;-36
2021/04/15 00:46:42;;;;;;;0.45;0.40;;;11.40;71.90;;;;;;5115735;28;20043;-36
2021/04/15 00:49:11;;;;;;;0.60;0.60;;;11.40;71.90;;;;;;5114388;28;20144;-36
2021/04/15 00:51:41;;;;;;;0.55;0.55;;;11.40;71.90;;;;;;5115736;28;20488;-37
2021/04/15 00:54:26;;;;;;;0.40;0.40;;;11.40;71.90;;;;;;5115350;28;20042;-36
2021/04/15 00:56:52;;;;;;;0.40;0.40;;;11.40;71.90;;;;;;5113283;28;20396;-39
2021/04/15 00:59:18;;;;;;;0.50;0.50;;;11.40;72.00;;;;;;5115621;28;20047;-35
2021/04/15 01:01:44;;;;;;;0.40;0.40;;;11.40;71.90;;;;;;5115636;28;20050;-37
2021/04/15 01:04:09;;;;;;;0.50;0.50;;;11.40;72.00;;;;;;5115683;28;20035;-48
2021/04/15 01:06:36;;;;;;;0.73;0.50;;;11.40;72.00;;;;;;5115600;28;20134;-48
2021/04/15 01:09:02;;;;;;;1.77;0.50;;;11.30;71.90;;;;;;5113097;28;20107;-46
2021/04/15 01:11:58;;;;;;;0.73;0.40;;;11.40;72.00;;;;;;5115212;28;20488;-49
2021/04/15 01:14:48;;;;;;;0.45;0.45;;;11.40;72.00;;;;;;5113130;28;20503;-42
2021/04/15 01:17:28;;;;;;;0.52;0.40;;;11.40;72.00;;;;;;5114242;28;20388;-44
2021/04/15 01:20:06;;;;;;;0.40;0.40;;;11.40;72.00;;;;;;5114708;28;20140;-47
2021/04/15 01:23:10;;;;;;;1.52;0.55;;;11.40;72.00;;;;;;5114087;28;20092;-41
2021/04/15 01:25:38;;;;;;;0.95;0.70;;;11.40;72.00;;;;;;5114004;28;20051;-42
2021/04/15 01:28:23;;;;;;;0.30;0.30;;;11.40;72.00;;;;;;5114469;28;20070;-37
2021/04/15 01:30:55;;;;;;;0.68;0.50;;;11.30;72.00;;;;;;5113577;28;20108;-41
2021/04/15 01:33:24;;;;;;;0.30;0.30;;;11.30;72.00;;;;;;5112429;28;20055;-42
2021/04/15 01:35:56;;;;;;;0.60;0.47;;;11.30;72.00;;;;;;5115266;28;20122;-41
2021/04/15 01:38:49;;;;;;;0.40;0.40;;;11.30;72.00;;;;;;5112007;28;20487;-42
2021/04/15 01:41:33;;;;;;;0.68;0.45;;;11.30;72.00;;;;;;5113601;28;20040;-43
2021/04/15 01:44:30;;;;;;;0.52;0.50;;;11.30;72.00;;;;;;5114463;28;20118;-40
2021/04/15 01:47:05;;;;;;;0.50;0.50;;;11.30;72.00;;;;;;5071365;28;20063;-41
2021/04/15 01:49:36;;;;;;;0.40;0.40;;;11.30;72.10;;;;;;5071628;28;20460;-37
2021/04/15 01:52:05;;;;;;;0.40;0.40;;;11.30;72.10;;;;;;5069346;28;20052;-45
2021/04/15 01:54:36;;;;;;;0.55;0.50;;;11.30;72.10;;;;;;5071855;28;20055;-39
2021/04/15 01:57:42;;;;;;;0.50;0.40;;;11.30;72.00;;;;;;5068683;28;20048;-40
2021/04/15 02:00:27;;;;;;;0.43;0.43;;;11.30;72.10;;;;;;5069502;28;20049;-38
2021/04/15 02:03:00;;;;;;;0.93;0.50;;;11.30;72.00;;;;;;5070583;28;20041;-36
2021/04/15 02:05:30;;;;;;;0.40;0.40;;;11.30;72.10;;;;;;5069633;28;20109;-38
2021/04/15 02:08:20;;;;;;;0.40;0.40;;;11.30;72.10;;;;;;5071293;28;20204;-36
2021/04/15 02:10:52;;;;;;;0.55;0.40;;;11.30;72.10;;;;;;5070955;28;20183;-40
2021/04/15 02:13:19;;;;;;;0.57;0.30;;;11.30;72.10;;;;;;5070673;28;20075;-39
2021/04/15 02:15:52;;;;;;;0.90;0.50;;;11.30;72.10;;;;;;5071402;28;20044;-40
2021/04/15 02:18:31;;;;;;;0.50;0.40;;;11.30;72.10;;;;;;5071249;28;20115;-36
2021/04/15 02:21:05;;;;;;;0.30;0.30;;;11.30;72.10;;;;;;5071127;28;20056;-38
2021/04/15 02:23:39;;;;;;;0.40;0.40;;;11.30;72.10;;;;;;5096815;28;20097;-38
2021/04/15 02:26:16;;;;;;;0.38;0.38;;;11.30;72.10;;;;;;5111829;28;20047;-40
2021/04/15 02:28:48;;;;;;;0.40;0.40;;;11.30;72.10;;;;;;5110876;28;20043;-38
2021/04/15 02:31:23;;;;;;;0.43;0.43;;;11.30;72.10;;;;;;5113625;28;20075;-37
2021/04/15 02:33:54;;;;;;;0.57;0.52;;;11.30;72.10;;;;;;5112207;28;20039;-37
2021/04/15 02:36:24;;;;;;;1.13;0.38;;;11.30;72.10;;;;;;5113749;28;20036;-38
2021/04/15 02:38:55;;;;;;;0.82;0.52;;;11.30;72.20;;;;;;5113676;28;20066;-38
2021/04/15 02:41:27;;;;;;;0.40;0.38;;;11.20;72.10;;;;;;5113170;28;20495;-35
2021/04/15 02:44:00;;;;;;;0.50;0.50;;;11.30;72.20;;;;;;5112937;28;20035;-37
2021/04/15 02:46:50;;;;;;;0.40;0.40;;;11.20;72.10;;;;;;5112805;28;20075;-37
2021/04/15 02:49:20;;;;;;;0.60;0.50;;;11.30;72.20;;;;;;5111639;28;20043;-38
2021/04/15 02:51:52;;;;;;;1.20;0.47;;;11.30;72.20;;;;;;5113194;28;20476;-38
2021/04/15 02:54:34;;;;;;;0.40;0.40;;;11.30;72.20;;;;;;5112672;28;20039;-39
2021/04/15 02:57:17;;;;;;;0.35;0.35;;;11.20;72.10;;;;;;5111890;28;20487;-36
2021/04/15 03:00:00;;;;;;;0.50;0.45;;;11.20;72.10;;;;;;5111982;28;20043;-39
2021/04/15 03:02:30;;;;;;;0.40;0.40;;;11.30;72.20;;;;;;5112372;28;20114;-35
2021/04/15 03:05:07;;;;;;;0.47;0.40;;;11.30;72.20;;;;;;5112275;28;20040;-37
2021/04/15 03:07:36;;;;;;;0.90;0.50;;;11.30;72.20;;;;;;5110171;28;20434;-37
2021/04/15 03:10:07;;;;;;;0.40;0.40;;;11.30;72.20;;;;;;5113109;28;20036;-35
2021/04/15 03:12:40;;;;;;;0.40;0.40;;;11.20;72.10;;;;;;5113109;28;20044;-37
2021/04/15 03:15:12;;;;;;;0.40;0.40;;;11.20;72.10;;;;;;5112147;28;20097;-35
2021/04/15 03:17:44;;;;;;;0.45;0.40;;;11.20;72.10;;;;;;5110565;28;20506;-42
2021/04/15 03:20:17;;;;;;;0.40;0.40;;;11.20;72.10;;;;;;5112554;28;20426;-36
2021/04/15 03:23:04;;;;;;;0.55;0.50;;;11.20;72.10;;;;;;5111483;28;20109;-36
2021/04/15 03:25:30;;;;;;;0.60;0.60;;;11.20;72.80;;;;;;5111714;28;20378;-39
2021/04/15 03:28:11;;;;;;;0.60;0.55;;;11.20;72.10;;;;;;5110055;28;20035;-41
2021/04/15 03:30:55;;;;;;;0.63;0.63;;;11.20;72.10;;;;;;5110042;28;20556;-41
2021/04/15 03:33:33;;;;;;;0.40;0.40;;;11.20;72.10;;;;;;5110809;28;20388;-36
2021/04/15 03:36:06;;;;;;;0.73;0.50;;;11.20;72.10;;;;;;5109835;28;20046;-37
2021/04/15 03:38:37;;;;;;;0.73;0.50;;;11.20;72.10;;;;;;5111591;28;20063;-37
2021/04/15 03:41:05;;;;;;;0.47;0.45;;;11.20;72.10;;;;;;5112934;28;20044;-37
2021/04/15 03:43:34;;;;;;;0.40;0.40;;;11.20;72.10;;;;;;5112884;28;20135;-36
2021/04/15 03:46:24;;;;;;;0.55;0.55;;;11.20;72.20;;;;;;5109817;28;20044;-38
2021/04/15 03:48:54;;;;;;;0.50;0.50;;;11.20;72.10;;;;;;5111668;28;20095;-36
2021/04/15 03:51:26;;;;;;;0.43;0.43;;;11.20;72.10;;;;;;5110655;28;20050;-39
2021/04/15 03:54:03;;;;;;;0.93;0.55;;;11.20;72.20;;;;;;5112378;28;20138;-37
2021/04/15 03:56:30;;;;;;;0.88;0.38;;;11.30;72.20;;;;;;5112940;28;20047;-37
2021/04/15 03:59:08;;;;;;;0.57;0.50;;;11.20;72.20;;;;;;5112591;28;20499;-37
2021/04/15 04:01:40;;;;;;;1.02;0.90;;;11.20;72.10;;;;;;5112209;28;20046;-35
2021/04/15 04:04:16;;;;;;;0.50;0.40;;;11.20;72.20;;;;;;5112219;28;20399;-35
2021/04/15 04:06:43;;;;;;;0.40;0.40;;;11.20;72.10;;;;;;5110260;28;20487;-36
2021/04/15 04:09:19;;;;;;;0.40;0.40;;;11.20;72.20;;;;;;5110769;28;20059;-37
2021/04/15 04:11:47;;;;;;;0.63;0.60;;;11.20;72.20;;;;;;5110859;28;20052;-36
2021/04/15 04:14:21;;;;;;;0.68;0.50;;;11.20;72.20;;;;;;5112094;28;20102;-35
2021/04/15 04:17:00;;;;;;;0.65;0.65;;;11.20;72.20;;;;;;5111915;28;20040;-36
2021/04/15 04:19:35;;;;;;;0.30;0.30;;;11.20;72.20;;;;;;5110997;28;20044;-36
2021/04/15 04:22:29;;;;;;;0.45;0.45;;;11.20;72.20;;;;;;5110172;28;20040;-39
2021/04/15 04:25:09;;;;;;;0.40;0.40;;;11.20;72.20;;;;;;5111822;28;21768;-37
2021/04/15 04:27:54;;;;;;;0.70;0.50;;;11.20;72.20;;;;;;5111864;28;20047;-38
2021/04/15 04:31:00;;;;;;;1.33;0.60;;;11.20;72.20;;;;;;5109865;28;20040;-39
2021/04/15 04:33:36;;;;;;;0.77;0.70;;;11.20;72.20;;;;;;5071729;28;20048;-37
2021/04/15 04:36:03;;;;;;;0.43;0.43;;;11.10;72.10;;;;;;5071631;28;20559;-34
2021/04/15 04:38:30;;;;;;;0.57;0.57;;;11.10;72.10;;;;;;5073278;28;20151;-36
2021/04/15 04:41:00;;;;;;;0.90;0.60;;;11.20;72.20;;;;;;5073309;28;20136;-36
2021/04/15 04:43:37;;;;;;;1.10;0.60;;;11.10;72.20;;;;;;5073227;28;20052;-36
2021/04/15 04:46:26;;;;;;;0.63;0.63;;;11.10;72.10;;;;;;5072224;28;20048;-39
2021/04/15 04:48:56;;;;;;;0.47;0.47;;;11.20;72.80;;;;;;5071111;28;20052;-36
2021/04/15 04:51:43;;;;;;;0.40;0.40;;;11.10;72.20;;;;;;5072693;28;20061;-36
2021/04/15 04:54:09;;;;;;;0.70;0.60;;;11.10;72.20;;;;;;5072206;28;20127;-36
2021/04/15 04:56:44;;;;;;;0.70;0.70;;;11.10;72.20;;;;;;5072048;28;20127;-39
2021/04/15 04:59:20;;;;;;;0.68;0.65;;;11.10;72.20;;;;;;5056324;28;20098;-44
2021/04/15 05:01:46;;;;;;;0.40;0.40;;;11.10;72.20;;;;;;5072960;28;20047;-43
2021/04/15 05:04:12;;;;;;;0.60;0.60;;;11.10;72.20;;;;;;5072300;28;20036;-48
2021/04/15 05:06:43;;;;;;;0.55;0.55;;;11.10;72.20;;;;;;5072654;28;20052;-45
2021/04/15 05:09:21;;;;;;;0.88;0.52;;;11.10;72.20;;;;;;5081697;28;20054;-48
2021/04/15 05:11:49;;;;;;;0.63;0.47;;;11.10;72.20;;;;;;5115426;28;20040;-47
2021/04/15 05:14:19;;;;;;;0.60;0.60;;;11.10;72.20;;;;;;5115305;28;20100;-42
2021/04/15 05:17:25;;;;;;;0.50;0.50;;;11.10;72.20;;;;;;5115086;28;20063;-42
2021/04/15 05:19:53;;;;;;;0.65;0.50;;;11.10;72.20;;;;;;5112012;28;20043;-45
2021/04/15 05:22:35;;;;;;;0.88;0.55;;;11.10;72.20;;;;;;5115717;28;20051;-42
2021/04/15 05:25:10;;;;;;;0.50;0.50;;;11.10;72.20;;;;;;5115755;28;20118;-42
2021/04/15 05:27:38;;;;;;;0.40;0.40;;;11.10;72.20;;;;;;5115778;28;20051;-39
2021/04/15 05:30:27;;;;;;;0.47;0.47;;;11.10;72.20;;;;;;5115224;28;20039;-38
2021/04/15 05:32:59;;;;;;;0.60;0.60;;;11.10;72.20;;;;;;5104548;28;20052;-37
2021/04/15 05:35:31;;;;;;;0.50;0.50;;;11.10;72.20;;;;;;5115124;27;20040;-37
2021/04/15 05:37:57;;;;;;;0.57;0.47;;;11.10;72.20;;;;;;5115406;28;20040;-37
2021/04/15 05:40:22;;;;;;;0.73;0.70;;;11.10;72.20;;;;;;5115111;28;20436;-39
2021/04/15 05:43:06;;;;;;;1.05;0.60;;;11.10;72.20;;;;;;5114077;28;20116;-36
2021/04/15 05:45:33;;;;;;;0.70;0.70;;;11.10;72.20;;;;;;5115316;27;20044;-36
2021/04/15 05:48:12;;;;;;;0.60;0.60;;;11.10;72.30;;;;;;5115267;28;20048;-43
2021/04/15 05:50:48;;;;;;;0.60;0.60;;;11.10;72.30;;;;;;5114411;28;20040;-45
2021/04/15 05:53:42;;;;;;;1.60;0.50;;;11.10;72.20;;;;;;5114839;28;20134;-41
2021/04/15 05:56:25;;;;;;;0.60;0.60;;;11.10;72.30;;;;;;5112707;28;20543;-36
2021/04/15 05:59:19;;;;;;;0.85;0.68;;;11.10;72.30;;;;;;5114834;28;20138;-48
2021/04/15 06:01:54;;;;;;;0.63;0.50;;;11.10;72.30;;;;;;5114619;28;20082;-39
2021/04/15 06:04:33;;;;;;;1.67;0.70;;;11.10;72.30;;;;;;5114906;28;20047;-38
2021/04/15 06:07:02;;;;;;;0.88;0.88;;;11.10;72.30;;;;;;5114406;28;20084;-43
2021/04/15 06:09:28;;;;;;;0.68;0.57;;;11.10;72.30;;;;;;5114490;28;20040;-36
2021/04/15 06:12:17;;;;;;;0.90;0.70;;;11.00;72.30;;;;;;5113824;28;21318;-48
2021/04/15 06:14:58;;;;;;;0.77;0.60;;;11.10;72.30;;;;;;5112069;28;20051;-41
2021/04/15 06:17:27;;;;;;;0.63;0.63;;;11.00;72.30;;;;;;5112032;28;20055;-38
2021/04/15 06:20:02;;;;;;;0.82;0.60;;;11.00;72.30;;;;;;5114072;28;20044;-40
2021/04/15 06:22:30;;;;;;;0.63;0.50;;;11.00;72.30;;;;;;5112345;28;20047;-38
2021/04/15 06:25:13;;;;;;;0.95;0.90;;;11.00;72.30;;;;;;5112550;28;20050;-36
2021/04/15 06:27:40;;;;;;;0.80;0.70;;;11.10;72.40;;;;;;5114170;28;20066;-38
2021/04/15 06:30:22;;;;;;;1.30;0.80;;;11.00;72.30;;;;;;5113996;28;20042;-40
2021/04/15 06:32:59;;;;;;;0.65;0.60;;;11.00;72.30;;;;;;5111981;28;20160;-38
2021/04/15 06:35:31;;;;;;;0.70;0.70;;;11.10;72.40;;;;;;5111867;28;20043;-35
2021/04/15 06:38:05;;;;;;;1.48;0.80;;;11.00;72.30;;;;;;5113234;28;20040;-35
2021/04/15 06:41:09;;;;;;;1.15;0.73;;;11.00;72.30;;;;;;5113810;28;20567;-42
2021/04/15 06:43:54;;;;;;;0.82;0.63;;;11.00;72.40;;;;;;5113047;28;20051;-36
2021/04/15 06:46:32;;;;;;;0.70;0.70;;;11.10;72.40;;;;;;5113710;28;20057;-35
2021/04/15 06:49:34;;;;;;;0.90;0.85;;;11.00;72.40;;;;;;5113591;28;20044;-40
2021/04/15 06:52:20;;;;;;;0.88;0.75;;;11.00;72.40;;;;;;5113526;28;20516;-37
2021/04/15 06:55:07;;;;;;;1.70;0.70;;;11.00;72.40;;;;;;5112741;28;20046;-36
2021/04/15 06:57:50;;;;;;;0.80;0.70;;;11.00;72.40;;;;;;5113148;28;20043;-39
2021/04/15 07:00:28;;;;;;;0.75;0.68;;;11.00;72.40;;;;;;5114065;28;20054;-38
2021/04/15 07:03:08;;;;;;;0.93;0.70;;;11.10;72.50;;;;;;5113655;28;20046;-36
2021/04/15 07:06:09;;;;;;;2.22;1.00;;;11.00;72.50;;;;;;5111826;28;20071;-36
2021/04/15 07:09:12;;;;;;;0.80;0.80;;;11.00;72.50;;;;;;5111959;28;20040;-37
2021/04/15 07:12:09;;;;;;;1.15;0.88;;;11.00;72.40;;;;;;5112362;28;20067;-39
2021/04/15 07:15:04;;;;;;;0.90;0.85;;;11.10;72.50;;;;;;5138317;27;20406;-39
2021/04/15 07:17:44;;;;;;;1.30;1.20;;;11.10;72.50;;;;;;5112484;28;20077;-40
2021/04/15 07:20:33;;;;;;;0.98;0.60;;;11.10;72.60;;;;;;5110667;28;20045;-38
2021/04/15 07:22:59;;;;;;;0.68;0.68;;;11.10;73.20;;;;;;5112197;28;20043;-41
2021/04/15 07:25:57;;;;;;;0.70;0.70;;;11.10;72.60;;;;;;5113135;28;20043;-42
2021/04/15 07:28:54;;;;;;;0.95;0.70;;;11.10;72.60;;;;;;5110349;28;20104;-42
2021/04/15 07:31:26;;;;;;;1.83;1.00;;;11.10;72.60;;;;;;5112425;28;20126;-40
2021/04/15 07:34:11;;;;;;;2.88;0.85;;;11.10;72.60;;;;;;5105231;28;20072;-40
2021/04/15 07:37:12;;;;;;;1.00;0.73;;;11.10;72.60;;;;;;5109920;28;20055;-38
2021/04/15 07:40:02;;;;;;;1.75;0.90;;;11.10;72.60;;;;;;5111539;28;20503;-39
2021/04/15 07:43:00;;;;;;;0.60;0.60;;;11.10;72.60;;;;;;5110854;28;20541;-37
2021/04/15 07:45:28;;;;;;;2.95;0.75;;;11.10;72.60;;;;;;5067826;28;20078;-36
2021/04/15 07:48:07;;;;;;;0.57;0.57;;;11.10;72.60;;;;;;5069857;28;20033;-40
2021/04/15 07:50:54;;;;;;;1.70;0.80;;;11.20;72.70;;;;;;5068745;28;20523;-36
2021/04/15 07:53:43;;;;;;;1.27;0.90;;;11.20;72.70;;;;;;5069543;28;20504;-39
2021/04/15 07:56:28;;;;;;;1.10;0.68;;;11.20;72.70;;;;;;5070110;28;20052;-45
2021/04/15 07:59:15;;;;;;;1.35;0.70;;;11.20;72.60;;;;;;5069904;28;20082;-46
2021/04/15 08:02:17;;;;;;;0.82;0.82;;;11.20;72.70;;;;;;5069881;28;20048;-42
2021/04/15 08:05:04;;;;;;;1.27;1.17;;;11.20;72.60;;;;;;5067172;28;20133;-40
2021/04/15 08:08:07;;;;;;;1.05;0.95;;;11.30;72.70;;;;;;5074233;28;20060;-46
2021/04/15 08:11:05;;;;;;;0.73;0.70;;;11.30;72.60;;;;;;5059952;28;20094;-43
2021/04/15 08:13:47;;;;;;;0.82;0.70;;;11.20;72.60;;;;;;5074136;28;20060;-37
2021/04/15 08:16:23;;;;;;;1.10;0.95;;;11.30;72.60;;;;;;5074042;28;20064;-35
2021/04/15 08:19:17;;;;;;;0.52;0.52;;;11.30;72.60;;;;;;5074138;28;20049;-34
2021/04/15 08:21:52;;;;;;;0.80;0.70;;;11.30;72.60;;;;;;5078265;28;20063;-37
2021/04/15 08:24:24;;;;;;;1.15;0.80;;;11.30;72.60;;;;;;5096593;28;20097;-37
2021/04/15 08:27:17;;;;;;;0.77;0.77;;;11.30;72.50;;;;;;5096239;28;20511;-35
2021/04/15 08:30:03;;;;;;;1.45;0.90;;;11.30;72.50;;;;;;5096316;28;20044;-37
2021/04/15 08:32:50;;;;;;;4.85;2.17;;;11.30;72.50;;;;;;5096165;28;20040;-36
2021/04/15 08:35:57;;;;;;;6.70;2.38;;;11.50;72.00;;;;;;5096461;28;20044;-40
2021/04/15 08:39:00;;;;;;;4.65;1.95;;;11.60;70.90;;;;;;5094921;28;20457;-44
2021/04/15 08:41:58;;;;;;;6.03;2.28;;;11.70;70.80;;;;;;5095912;28;20047;-43
2021/04/15 08:44:39;;;;;;;3.88;2.03;;;11.70;70.60;;;;;;5095963;28;20043;-38
2021/04/15 08:47:50;;;;;;;3.38;2.00;;;11.60;70.50;;;;;;5095940;28;20512;-39
2021/04/15 08:50:54;;;;;;;3.25;2.00;;;11.70;70.60;;;;;;5053460;28;20118;-39
2021/04/15 08:53:47;;;;;;;2.70;1.63;;;11.70;70.60;;;;;;5053200;28;20063;-36
2021/04/15 08:56:15;;;;;;;8.80;2.35;;;11.70;70.70;;;;;;5053196;28;20056;-40
2021/04/15 08:59:07;;;;;;;7.68;2.65;;;11.70;70.30;;;;;;5053303;28;20426;-42
2021/04/15 09:02:01;;;;;;;4.45;2.40;;;11.70;70.20;;;;;;5053141;28;20045;-45
2021/04/15 09:04:51;;;;;;;5.13;2.10;;;11.70;70.10;;;;;;5053356;28;20563;-36
2021/04/15 09:07:39;;;;;;;3.22;2.17;;;11.70;70.10;;;;;;5052940;28;20052;-44
2021/04/15 09:10:13;;;;;;;4.18;1.90;;;11.70;70.10;;;;;;5053076;28;20075;-42
2021/04/15 09:12:57;;;;;;;5.68;2.20;;;11.70;70.20;;;;;;5052572;28;20049;-38
2021/04/15 09:15:50;;;;;;;2.95;2.00;;;11.70;70.10;;;;;;5068111;28;20140;-44
2021/04/15 09:18:37;;;;;;;5.60;2.15;;;11.70;70.20;;;;;;5072075;28;20061;-37
2021/04/15 09:21:25;;;;;;;2.40;1.90;;;11.70;70.20;;;;;;5073004;28;20056;-37
2021/04/15 09:24:31;;;;;;;2.88;2.00;;;11.70;70.20;;;;;;5073048;28;20048;-44
2021/04/15 09:27:21;;;;;;;4.93;1.88;;;11.80;70.20;;;;;;5029950;28;20560;-42
2021/04/15 09:29:51;;;;;;;3.88;1.80;;;11.80;70.30;;;;;;5052845;28;20057;-39
2021/04/15 09:32:26;;;;;;;2.78;1.98;;;11.80;70.30;;;;;;5052805;28;20052;-42
2021/04/15 09:35:12;;;;;;;2.65;1.77;;;11.80;71.00;;;;;;5052807;28;20493;-38
2021/04/15 09:38:02;;;;;;;1.92;1.50;;;11.80;70.30;;;;;;5052623;28;20072;-38
2021/04/15 09:40:49;;;;;;;2.03;1.50;;;11.80;70.30;;;;;;5052413;28;20048;-42
2021/04/15 09:43:43;;;;;;;3.08;1.98;;;11.80;70.40;;;;;;5052136;28;20064;-45
2021/04/15 09:46:28;;;;;;;2.60;1.67;;;11.80;70.30;;;;;;5052330;28;20056;-37
2021/04/15 09:49:15;;;;;;;3.00;1.67;;;11.90;70.40;;;;;;5052348;28;20049;-45
2021/04/15 09:51:50;;;;;;;2.92;1.75;;;11.80;70.30;;;;;;5052377;28;20049;-38
2021/04/15 09:54:48;;;;;;;4.90;1.47;;;11.80;70.30;;;;;;5052164;28;20075;-37
2021/04/15 09:57:20;;;;;;;3.10;1.70;;;11.90;70.20;;;;;;5052284;28;20321;-38
2021/04/15 09:59:59;;;;;;;2.00;1.40;;;11.90;70.30;;;;;;5052197;28;20152;-40
2021/04/15 10:02:43;;;;;;;3.22;1.58;;;11.90;70.10;;;;;;5083022;28;20124;-44
2021/04/15 10:05:29;;;;;;;3.15;1.35;;;11.90;70.10;;;;;;5114942;28;20492;-41
2021/04/15 10:07:57;;;;;;;;;;;11.90;70.10;;;;;;5052513;28;20131;-38
2021/04/15 10:10:32;;;;;;;2.60;1.48;;;11.90;70.00;;;;;;5052080;28;19951;-39
2021/04/15 10:13:18;;;;;;;1.65;1.35;;;11.90;70.10;;;;;;5051592;28;20057;-37
2021/04/15 10:16:06;;;;;;;2.75;1.60;;;12.00;70.00;;;;;;5052044;28;20056;-37
2021/04/15 10:19:08;;;;;;;1.42;1.25;;;12.00;70.00;;;;;;5051825;28;20045;-39
2021/04/15 10:22:06;;;;;;;2.03;1.30;;;12.00;70.00;;;;;;5011791;28;20061;-37
2021/04/15 10:24:54;;;;;;;1.98;1.40;;;12.00;70.00;;;;;;4934506;29;20233;-39
2021/04/15 10:27:53;;;;;;;2.38;1.20;;;12.00;70.00;;;;;;4934642;29;20047;-38
2021/04/15 10:30:40;;;;;;;1.70;1.50;;;12.00;69.90;;;;;;4928623;29;20063;-37
2021/04/15 10:33:32;;;;;;;2.20;1.13;;;12.00;69.90;;;;;;4948104;29;20055;-38
2021/04/15 10:36:28;;;;;;;1.85;1.20;;;12.10;69.90;;;;;;4953473;29;20105;-37
2021/04/15 10:39:01;;;;;;;1.40;1.10;;;12.10;69.80;;;;;;4953351;29;20063;-40
2021/04/15 10:42:04;;;;;;;2.75;1.40;;;12.10;69.90;;;;;;4938252;29;20066;-38
2021/04/15 10:44:51;;;;;;;1.25;1.00;;;12.10;69.80;;;;;;4949601;28;20096;-37
2021/04/15 10:48:00;;;;;;;1.10;0.95;;;12.10;69.80;;;;;;4991911;28;20054;-40
2021/04/15 10:50:31;;;;;;;2.85;1.25;;;12.10;69.70;;;;;;4991993;28;20165;-37
2021/04/15 10:53:06;;;;;;;1.48;1.13;;;12.10;69.80;;;;;;4990946;28;20058;-38
2021/04/15 10:55:34;;;;;;;1.65;1.25;;;12.10;69.70;;;;;;4990950;28;20066;-38
2021/04/15 10:58:18;;;;;;;1.85;1.05;;;12.20;69.70;;;;;;4994972;28;20117;-37
2021/04/15 11:00:44;;;;;;;1.98;1.17;;;12.20;69.70;;;;;;5058923;28;20047;-37
2021/04/15 11:03:17;;;;;;;1.17;1.08;;;12.20;69.70;;;;;;5113637;28;20062;-40
2021/04/15 11:05:45;;;;;;;1.10;1.00;;;12.20;69.70;;;;;;5112725;28;20392;-39
2021/04/15 11:08:27;;;;;;;1.48;1.00;;;12.20;69.60;;;;;;5111077;28;20058;-35
2021/04/15 11:11:09;;;;;;;1.17;1.00;;;12.30;69.70;;;;;;5113395;28;20054;-37
2021/04/15 11:13:37;;;;;;;1.50;1.10;;;12.20;69.60;;;;;;5112554;28;20052;-35
2021/04/15 11:16:04;;;;;;;1.85;1.10;;;12.30;69.70;;;;;;5113100;28;20100;-39
2021/04/15 11:18:35;;;;;;;1.17;1.08;;;12.30;69.60;;;;;;5113425;28;20043;-37
2021/04/15 11:21:20;;;;;;;4.13;1.38;;;12.30;69.60;;;;;;5110581;28;20405;-36
2021/04/15 11:23:47;;;;;;;7.05;1.63;;;12.30;68.30;;;;;;5113445;28;20047;-43
2021/04/15 11:26:18;;;;;;;4.43;1.35;;;12.30;68.00;;;;;;5113425;28;20381;-41
2021/04/15 11:28:45;;;;;;;5.32;1.25;;;12.30;67.80;;;;;;5112631;28;20075;-38
2021/04/15 11:31:11;;;;;;;2.97;1.20;;;12.20;67.80;;;;;;5113066;28;20124;-37
2021/04/15 11:34:07;;;;;;;2.85;1.35;;;12.30;67.90;;;;;;5113093;28;20086;-37
2021/04/15 11:36:37;;;;;;;2.03;1.15;;;12.30;67.90;;;;;;5112640;28;20047;-36
2021/04/15 11:39:05;;;;;;;1.75;1.20;;;12.40;68.00;;;;;;5113168;28;20177;-37
2021/04/15 11:41:37;;;;;;;2.20;1.25;;;12.40;68.00;;;;;;5112399;28;20544;-39
2021/04/15 11:44:23;;;;;;;2.03;1.08;;;12.40;68.10;;;;;;5112419;28;20118;-38
2021/04/15 11:46:51;;;;;;;1.25;0.90;;;12.40;68.10;;;;;;5106380;28;20055;-40
2021/04/15 11:49:31;;;;;;;2.85;1.50;;;12.50;68.90;;;;;;5110916;28;20035;-35
2021/04/15 11:52:02;;;;;;;1.88;1.08;;;12.50;68.30;;;;;;5112433;28;20047;-36
2021/04/15 11:54:35;;;;;;;1.48;1.10;;;12.50;68.30;;;;;;5112587;28;20492;-39
2021/04/15 11:57:19;;;;;;;1.23;0.90;;;12.50;68.40;;;;;;5111803;28;20043;-39
2021/04/15 12:00:02;;;;;;;0.75;0.75;;;12.50;68.40;;;;;;5112537;28;20052;-37
2021/04/15 12:02:54;;;;;;;1.50;1.00;;;12.50;68.40;;;;;;5112949;28;20062;-40
2021/04/15 12:05:29;;;;;;;1.10;0.85;;;12.50;68.40;;;;;;5029261;28;20087;-37
2021/04/15 12:08:00;;;;;;;2.80;0.93;;;12.50;68.40;;;;;;5030190;28;20061;-37
2021/04/15 12:10:31;;;;;;;1.65;0.85;;;12.60;68.50;;;;;;5028010;28;20061;-36
2021/04/15 12:13:14;;;;;;;1.85;1.20;;;12.60;68.50;;;;;;5029289;28;20114;-34
2021/04/15 12:15:48;;;;;;;1.25;1.15;;;12.60;68.50;;;;;;5029889;28;20058;-42
2021/04/15 12:18:25;;;;;;;2.40;0.98;;;12.60;68.50;;;;;;5029937;28;20084;-38
2021/04/15 12:20:50;;;;;;;1.33;0.95;;;12.60;69.20;;;;;;5028857;28;20102;-37
2021/04/15 12:23:24;;;;;;;1.20;0.90;;;12.60;68.50;;;;;;5029993;28;20092;-37
2021/04/15 12:25:57;;;;;;;2.83;1.10;;;12.60;68.50;;;;;;5030230;28;20053;-37
2021/04/15 12:28:37;;;;;;;1.63;1.10;;;12.60;68.50;;;;;;5011985;28;20498;-35
2021/04/15 12:31:26;;;;;;;1.45;1.05;;;12.60;68.50;;;;;;5023618;28;20050;-38
2021/04/15 12:34:09;;;;;;;1.40;1.00;;;12.80;68.60;;;;;;5009490;28;20054;-36
2021/04/15 12:36:40;;;;;;;1.38;1.08;;;12.70;68.50;;;;;;5026715;28;20069;-36
2021/04/15 12:39:20;;;;;;;1.77;0.80;;;12.70;68.50;;;;;;5022442;28;20053;-37
2021/04/15 12:41:46;;;;;;;1.73;0.90;;;12.70;68.50;;;;;;5052891;28;20071;-36
2021/04/15 12:44:23;;;;;;;2.28;1.27;;;12.70;68.50;;;;;;5111157;28;20071;-41
2021/04/15 12:46:50;;;;;;;3.00;1.13;;;12.70;68.50;;;;;;5111573;28;20144;-38
2021/04/15 12:49:19;;;;;;;1.88;0.80;;;12.70;68.50;;;;;;5109989;28;20043;-38
2021/04/15 12:51:58;;;;;;;1.23;0.98;;;12.70;68.50;;;;;;5110377;28;20043;-42
2021/04/15 12:54:34;;;;;;;2.13;0.93;;;12.70;68.50;;;;;;5110877;28;20127;-37
2021/04/15 12:57:02;;;;;;;1.60;1.05;;;12.70;68.50;;;;;;5110445;28;20878;-40
2021/04/15 12:59:43;;;;;;;1.13;1.00;;;12.70;68.50;;;;;;5111055;28;20055;-41
2021/04/15 13:02:24;;;;;;;1.30;0.98;;;12.70;68.50;;;;;;5113839;28;20051;-44
2021/04/15 13:04:53;;;;;;;2.95;1.05;;;12.70;68.50;;;;;;5113368;28;20043;-41
2021/04/15 13:07:22;;;;;;;1.27;0.85;;;12.70;68.60;;;;;;5112630;28;20434;-42
2021/04/15 13:09:51;;;;;;;0.95;0.90;;;12.70;68.50;;;;;;5115001;28;20051;-38
2021/04/15 13:12:37;;;;;;;1.55;1.10;;;12.70;68.60;;;;;;5112531;28;20591;-36
2021/04/15 13:15:29;;;;;;;1.10;0.70;;;12.70;68.60;;;;;;5114886;28;20044;-42
2021/04/15 13:17:57;;;;;;;3.40;2.00;;;12.70;68.50;;;;;;5111965;28;20120;-39
2021/04/15 13:20:23;;;;;;;4.05;2.40;;;12.70;67.50;;;;;;5112911;28;20048;-39
2021/04/15 13:23:09;;;;;;;3.10;1.70;;;12.60;66.40;;;;;;5115042;28;20054;-40
2021/04/15 13:25:57;;;;;;;2.05;1.65;;;12.60;65.90;;;;;;5113876;28;20043;-35
2021/04/15 13:28:45;;;;;;;4.13;1.67;;;12.60;66.10;;;;;;5114814;28;20062;-39
2021/04/15 13:31:33;;;;;;;2.92;1.40;;;12.60;66.10;;;;;;5114765;28;20051;-36
2021/04/15 13:34:01;;;;;;;1.50;1.40;;;12.60;66.30;;;;;;5105897;28;20047;-40
2021/04/15 13:36:28;;;;;;;3.47;1.70;;;12.60;66.50;;;;;;5115052;28;20039;-38
2021/04/15 13:38:53;;;;;;;1.88;1.60;;;12.50;66.60;;;;;;5114298;28;20048;-38
2021/04/15 13:41:22;;;;;;;1.88;1.50;;;12.60;66.80;;;;;;5114789;28;20496;-39
2021/04/15 13:43:52;;;;;;;4.40;2.08;;;12.60;66.90;;;;;;5114472;28;20169;-44
2021/04/15 13:46:24;;;;;;;9.00;2.55;;;12.50;64.50;;;;;;5113733;28;20120;-41
2021/04/15 13:48:50;;;;;;;6.43;2.40;;;12.40;64.40;;;;;;5100810;28;20066;-34